createdAt,value
2019-02-19T00:03:50.642Z,28.83
2019-02-19T00:06:37.584Z,28.80
2019-02-19T00:09:24.447Z,28.97
2019-02-19T00:12:10.726Z,28.93
2019-02-19T00:14:57.889Z,28.53
2019-02-19T00:17:44.739Z,28.07
2019-02-19T00:20:31.059Z,28.30
2019-02-19T00:23:18.144Z,28.57
2019-02-19T00:26:04.879Z,28.80
2019-02-19T00:28:51.878Z,28.03
2019-02-19T00:31:38.479Z,29.20
2019-02-19T00:34:25.455Z,28.23
2019-02-19T00:37:12.335Z,28.17
2019-02-19T00:39:59.170Z,28.20
2019-02-19T00:42:45.814Z,28.53
2019-02-19T00:45:32.452Z,28.40
2019-02-19T00:48:19.571Z,27.40
2019-02-19T00:51:05.863Z,28.10
2019-02-19T00:53:52.939Z,28.70
2019-02-19T00:56:39.742Z,28.13
2019-02-19T00:59:26.285Z,28.37
2019-02-19T01:02:12.531Z,29.43
2019-02-19T01:04:59.307Z,28.70
2019-02-19T01:07:45.743Z,28.43
2019-02-19T01:10:33.527Z,28.23
2019-02-19T01:13:20.491Z,28.17
2019-02-19T01:16:07.243Z,28.23
2019-02-19T01:18:54.091Z,28.40
2019-02-19T01:21:40.540Z,29.13
2019-02-19T01:24:25.506Z,28.63
2019-02-19T01:27:19.529Z,28.50
2019-02-19T01:30:06.528Z,28.27
2019-02-19T01:32:52.778Z,28.07
2019-02-19T01:35:39.175Z,28.67
2019-02-19T01:38:25.606Z,28.30
2019-02-19T01:41:12.335Z,28.23
2019-02-19T01:43:59.367Z,28.10
2019-02-19T01:46:46.115Z,28.23
2019-02-19T01:49:32.975Z,28.23
2019-02-19T01:52:19.802Z,28.40
2019-02-19T01:55:06.916Z,28.30
2019-02-19T01:57:53.978Z,28.73
2019-02-19T02:00:40.554Z,28.97
2019-02-19T02:03:27.663Z,28.47
2019-02-19T02:06:14.783Z,28.43
2019-02-19T02:09:01.331Z,28.23
2019-02-19T02:11:48.531Z,28.40
2019-02-19T02:14:35.639Z,28.23
2019-02-19T02:17:22.348Z,28.23
2019-02-19T02:20:09.258Z,28.60
2019-02-19T02:22:55.782Z,28.33
2019-02-19T02:25:42.075Z,28.50
2019-02-19T02:28:28.511Z,28.33
2019-02-19T02:31:15.149Z,28.70
2019-02-19T02:34:02.146Z,28.70
2019-02-19T02:36:48.549Z,28.10
2019-02-19T02:39:34.872Z,28.30
2019-02-19T02:42:21.992Z,28.43
2019-02-19T02:45:08.319Z,28.00
2019-02-19T02:47:55.388Z,28.13
2019-02-19T02:50:42.169Z,28.30
2019-02-19T02:53:29.200Z,28.90
2019-02-19T02:56:16.092Z,28.80
2019-02-19T02:59:02.432Z,28.23
2019-02-19T03:01:49.220Z,28.53
2019-02-19T03:04:36.160Z,28.73
2019-02-19T03:07:28.024Z,28.23
2019-02-19T03:10:15.111Z,28.87
2019-02-19T03:13:02.130Z,28.03
2019-02-19T03:15:49.033Z,28.93
2019-02-19T03:18:35.319Z,28.40
2019-02-19T03:21:21.811Z,28.37
2019-02-19T03:24:08.816Z,28.47
2019-02-19T03:26:55.180Z,28.73
2019-02-19T03:29:41.581Z,29.20
2019-02-19T03:32:28.512Z,28.87
2019-02-19T03:35:15.547Z,28.40
2019-02-19T03:38:02.645Z,28.80
2019-02-19T03:40:49.573Z,28.63
2019-02-19T03:43:36.370Z,29.00
2019-02-19T03:46:22.754Z,29.57
2019-02-19T03:49:09.751Z,29.47
2019-02-19T03:51:56.774Z,29.00
2019-02-19T03:54:43.757Z,28.80
2019-02-19T03:57:30.638Z,28.90
2019-02-19T04:00:06.531Z,28.83
2019-02-19T04:03:00.556Z,29.17
2019-02-19T04:05:47.615Z,29.30
2019-02-19T04:08:34.636Z,28.80
2019-02-19T04:11:22.404Z,28.53
2019-02-19T04:14:08.701Z,27.97
2019-02-19T04:16:55.056Z,29.00
2019-02-19T04:19:40.215Z,28.40
2019-02-19T04:22:34.220Z,29.00
2019-02-19T04:25:21.143Z,29.10
2019-02-19T04:28:08.343Z,28.90
2019-02-19T04:30:55.709Z,29.57
2019-02-19T04:33:42.557Z,28.97
2019-02-19T04:36:29.416Z,29.13
2019-02-19T04:39:16.256Z,28.37
2019-02-19T04:42:03.024Z,28.83
2019-02-19T04:44:49.745Z,29.10
2019-02-19T04:47:24.475Z,29.07
2019-02-19T04:50:19.759Z,28.77
2019-02-19T04:53:26.385Z,28.83
2019-02-19T04:56:12.967Z,29.37
2019-02-19T04:59:00.068Z,28.87
2019-02-19T05:01:46.425Z,29.10
2019-02-19T05:04:33.465Z,29.43
2019-02-19T05:07:20.276Z,29.10
2019-02-19T05:10:07.200Z,29.53
2019-02-19T05:12:53.420Z,28.10
2019-02-19T05:15:40.072Z,28.13
2019-02-19T05:18:26.768Z,28.70
2019-02-19T05:21:13.823Z,28.47
2019-02-19T05:24:00.866Z,29.20
2019-02-19T05:26:47.292Z,29.73
2019-02-19T05:29:34.454Z,29.93
2019-02-19T05:32:20.985Z,30.30
2019-02-19T05:35:08.172Z,29.73
2019-02-19T05:37:54.722Z,29.33
2019-02-19T05:40:41.896Z,29.20
2019-02-19T05:43:28.855Z,29.30
2019-02-19T05:46:15.944Z,28.77
2019-02-19T05:49:03.051Z,28.87
2019-02-19T05:51:49.612Z,29.13
2019-02-19T05:54:36.436Z,29.97
2019-02-19T05:57:22.996Z,29.77
2019-02-19T06:00:09.307Z,30.33
2019-02-19T06:02:56.345Z,29.80
2019-02-19T06:05:42.951Z,29.70
2019-02-19T06:08:30.040Z,28.83
2019-02-19T06:11:16.472Z,30.97
2019-02-19T06:14:02.856Z,29.87
2019-02-19T06:16:57.965Z,29.27
2019-02-19T06:19:37.494Z,29.07
2019-02-19T06:22:24.104Z,29.43
2019-02-19T06:25:10.899Z,29.73
2019-02-19T06:27:57.580Z,29.97
2019-02-19T06:30:43.936Z,29.87
2019-02-19T06:33:31.068Z,30.33
2019-02-19T06:36:17.801Z,29.33
2019-02-19T06:39:05.196Z,29.23
2019-02-19T06:41:52.010Z,29.20
2019-02-19T06:44:38.316Z,28.73
2019-02-19T06:47:24.774Z,29.03
2019-02-19T06:50:11.177Z,29.43
2019-02-19T06:52:57.448Z,29.63
2019-02-19T06:55:45.018Z,28.97
2019-02-19T06:58:31.499Z,29.93
2019-02-19T07:01:21.383Z,29.67
2019-02-19T07:04:15.370Z,29.83
2019-02-19T07:07:02.368Z,29.00
2019-02-19T07:09:49.405Z,29.07
2019-02-19T07:12:36.079Z,28.87
2019-02-19T07:15:22.757Z,29.07
2019-02-19T07:18:09.680Z,29.13
2019-02-19T07:20:56.179Z,28.87
2019-02-19T07:23:42.691Z,29.70
2019-02-19T07:26:29.372Z,29.37
2019-02-19T07:29:16.572Z,29.23
2019-02-19T07:32:03.006Z,30.13
2019-02-19T07:34:50.028Z,30.23
2019-02-19T07:37:36.844Z,29.23
2019-02-19T07:40:23.765Z,30.40
2019-02-19T07:43:10.198Z,29.80
2019-02-19T07:45:57.007Z,29.73
2019-02-19T07:48:43.344Z,30.23
2019-02-19T07:51:30.493Z,29.63
2019-02-19T07:54:16.668Z,29.60
2019-02-19T07:57:03.315Z,30.13
2019-02-19T07:59:50.315Z,30.20
2019-02-19T08:02:36.703Z,31.10
2019-02-19T08:05:23.239Z,29.80
2019-02-19T08:08:09.717Z,29.80
2019-02-19T08:10:56.663Z,29.67
2019-02-19T08:13:43.820Z,30.30
2019-02-19T08:16:30.622Z,30.23
2019-02-19T08:19:17.031Z,29.80
2019-02-19T08:22:03.440Z,30.47
2019-02-19T08:24:50.591Z,29.80
2019-02-19T08:27:36.834Z,29.60
2019-02-19T08:30:23.699Z,29.73
2019-02-19T08:33:10.630Z,29.90
2019-02-19T08:35:57.187Z,29.83
2019-02-19T08:38:43.415Z,29.53
2019-02-19T08:41:30.505Z,29.53
2019-02-19T08:44:16.831Z,29.40
2019-02-19T08:47:03.948Z,29.10
2019-02-19T08:49:50.580Z,29.33
2019-02-19T08:52:37.455Z,30.33
2019-02-19T08:55:24.241Z,30.07
2019-02-19T08:58:11.435Z,29.97
2019-02-19T09:00:58.122Z,30.03
2019-02-19T09:03:45.192Z,29.53
2019-02-19T09:06:32.180Z,29.80
2019-02-19T09:09:19.191Z,29.70
2019-02-19T09:12:05.920Z,33.87
2019-02-19T09:14:52.256Z,32.67
2019-02-19T09:17:39.261Z,32.20
2019-02-19T09:20:27.210Z,30.70
2019-02-19T09:23:14.163Z,31.03
2019-02-19T09:26:01.240Z,34.07
2019-02-19T09:28:48.775Z,32.00
2019-02-19T09:31:35.883Z,33.63
2019-02-19T09:34:22.941Z,33.40
2019-02-19T09:37:09.688Z,32.07
2019-02-19T09:39:56.631Z,31.57
2019-02-19T09:42:43.304Z,31.43
2019-02-19T09:45:29.819Z,31.40
2019-02-19T09:48:16.095Z,30.90
2019-02-19T09:50:50.839Z,31.20
2019-02-19T09:53:44.787Z,30.73
2019-02-19T09:56:31.672Z,31.20
2019-02-19T09:59:06.502Z,31.70
2019-02-19T10:02:00.515Z,31.40
2019-02-19T10:04:47.227Z,31.83
2019-02-19T10:07:34.144Z,31.40
2019-02-19T10:10:20.843Z,31.17
2019-02-19T10:13:08.699Z,31.27
2019-02-19T10:15:55.160Z,31.87
2019-02-19T10:18:42.088Z,31.10
2019-02-19T10:21:28.628Z,32.33
2019-02-19T10:24:14.957Z,32.63
2019-02-19T10:27:01.673Z,31.67
2019-02-19T10:29:48.759Z,32.00
2019-02-19T10:32:35.234Z,31.93
2019-02-19T10:35:11.131Z,32.30
2019-02-19T10:38:05.066Z,31.60
2019-02-19T10:40:51.441Z,31.80
2019-02-19T10:43:38.367Z,32.10
2019-02-19T10:46:24.831Z,32.40
2019-02-19T10:49:11.193Z,31.73
2019-02-19T10:51:57.513Z,31.30
2019-02-19T10:54:44.435Z,31.60
2019-02-19T10:57:31.024Z,32.17
2019-02-19T11:03:15.081Z,32.83
2019-02-19T11:06:10.728Z,35.20
2019-02-19T11:08:57.633Z,32.13
2019-02-19T11:11:44.764Z,32.90
2019-02-19T11:14:32.011Z,31.63
2019-02-19T11:17:19.898Z,32.07
2019-02-19T11:20:07.750Z,38.70
2019-02-19T11:22:53.971Z,32.33
2019-02-19T11:25:40.691Z,33.40
2019-02-19T11:28:29.492Z,48.23
2019-02-19T11:31:16.537Z,34.27
2019-02-19T11:34:02.936Z,35.27
2019-02-19T11:36:49.898Z,34.80
2019-02-19T11:39:36.534Z,33.33
2019-02-19T11:42:23.170Z,35.27
2019-02-19T11:45:09.491Z,32.70
2019-02-19T11:47:56.615Z,33.00
2019-02-19T11:50:43.336Z,32.57
2019-02-19T12:00:06.852Z,33.67
2019-02-19T12:02:53.507Z,32.23
2019-02-19T12:05:40.416Z,32.33
2019-02-19T12:08:26.748Z,33.10
2019-02-19T12:11:13.410Z,33.50
2019-02-19T12:13:59.780Z,34.47
2019-02-19T12:16:46.644Z,34.03
2019-02-19T12:19:33.331Z,34.33
2019-02-19T12:22:20.359Z,34.77
2019-02-19T12:25:07.448Z,36.33
2019-02-19T12:27:54.624Z,36.87
2019-02-19T12:30:42.690Z,37.93
2019-02-19T12:33:29.847Z,36.07
2019-02-19T12:36:16.444Z,36.00
2019-02-19T12:39:05.497Z,35.80
2019-02-19T12:41:52.419Z,35.80
2019-02-19T12:44:39.356Z,35.70
2019-02-19T12:47:26.044Z,35.30
2019-02-19T12:50:13.109Z,35.17
2019-02-19T12:52:59.887Z,36.10
2019-02-19T12:55:46.605Z,35.67
2019-02-19T12:58:33.740Z,36.97
2019-02-19T13:01:20.383Z,36.00
2019-02-19T13:04:07.553Z,35.23
2019-02-19T13:06:54.355Z,36.33
2019-02-19T13:09:41.440Z,35.07
2019-02-19T13:12:27.771Z,35.73
2019-02-19T13:15:15.763Z,35.37
2019-02-19T13:18:02.737Z,34.13
2019-02-19T13:20:49.887Z,35.00
2019-02-19T13:23:38.224Z,36.03
2019-02-19T13:26:24.884Z,35.63
2019-02-19T13:29:11.844Z,36.57
2019-02-19T13:31:58.463Z,35.17
2019-02-19T13:34:45.223Z,36.13
2019-02-19T13:37:31.956Z,34.90
2019-02-19T13:40:18.448Z,36.40
2019-02-19T13:43:05.511Z,36.70
2019-02-19T13:45:51.991Z,36.93
2019-02-19T13:48:38.939Z,36.63
2019-02-19T13:51:25.998Z,36.73
2019-02-19T13:54:17.064Z,35.67
2019-02-19T13:57:03.493Z,36.43
2019-02-19T13:59:50.526Z,36.13
2019-02-19T14:02:37.708Z,36.47
2019-02-19T14:05:24.264Z,36.20
2019-02-19T14:08:14.695Z,37.50
2019-02-19T14:11:00.094Z,38.53
2019-02-19T14:14:08.999Z,42.60
2019-02-19T14:17:07.384Z,39.40
2019-02-19T14:20:13.028Z,37.73
2019-02-19T14:23:14.517Z,39.60
2019-02-19T14:26:20.273Z,36.70
2019-02-19T14:29:26.159Z,36.80
2019-02-19T14:32:25.845Z,37.80
2019-02-19T14:35:30.183Z,37.77
2019-02-19T14:38:35.596Z,37.00
2019-02-19T14:41:41.230Z,37.63
2019-02-19T14:44:47.098Z,37.30
2019-02-19T14:47:41.867Z,39.83
2019-02-19T14:50:54.944Z,38.43
2019-02-19T14:54:03.142Z,37.70
2019-02-19T14:56:56.665Z,38.40
2019-02-19T15:00:01.972Z,37.50
2019-02-19T15:03:11.539Z,38.60
2019-02-19T15:09:21.616Z,36.80
2019-02-19T15:12:27.811Z,40.23
2019-02-19T15:15:33.807Z,44.43
2019-02-19T15:18:45.471Z,45.60
2019-02-19T15:21:51.544Z,45.87
2019-02-19T15:24:45.544Z,42.07
2019-02-19T15:27:40.581Z,41.13
2019-02-19T15:30:45.940Z,41.47
2019-02-19T15:33:40.843Z,38.93
2019-02-19T15:36:46.870Z,37.97
2019-02-19T15:39:52.980Z,37.17
2019-02-19T15:42:50.367Z,38.37
2019-02-19T15:46:02.340Z,37.40
2019-02-19T15:49:04.207Z,38.00
2019-02-19T15:52:12.218Z,38.53
2019-02-19T15:55:09.739Z,39.57
2019-02-19T15:58:10.839Z,45.13
2019-02-19T16:01:19.049Z,41.10
2019-02-19T16:04:17.135Z,43.20
2019-02-19T16:07:11.488Z,51.47
2019-02-19T16:10:11.922Z,63.13
2019-02-19T16:13:09.040Z,42.97
2019-02-19T16:16:15.356Z,39.83
2019-02-19T16:19:15.120Z,40.80
2019-02-19T16:22:14.552Z,40.07
2019-02-19T16:25:20.601Z,41.90
2019-02-19T16:28:26.431Z,46.57
2019-02-19T16:34:24.739Z,41.87
2019-02-19T16:37:24.149Z,42.50
2019-02-19T16:40:29.751Z,48.57
2019-02-19T16:43:35.736Z,45.30
2019-02-19T16:46:41.308Z,41.50
2019-02-19T16:52:50.222Z,37.53
2019-02-19T16:55:31.250Z,37.23
2019-02-19T16:58:16.578Z,36.80
2019-02-19T17:00:59.380Z,35.63
2019-02-19T17:03:50.283Z,35.73
2019-02-19T17:06:44.668Z,35.30
2019-02-19T17:09:24.755Z,35.63
2019-02-19T17:12:15.024Z,37.60
2019-02-19T17:15:00.613Z,35.90
2019-02-19T17:17:48.642Z,37.03
2019-02-19T17:20:45.600Z,34.70
2019-02-19T17:23:40.531Z,34.27
2019-02-19T17:26:43.575Z,33.80
2019-02-19T17:29:40.429Z,34.00
2019-02-19T17:32:33.152Z,34.00
2019-02-19T17:35:28.581Z,55.17
2019-02-19T17:38:25.229Z,43.33
2019-02-19T17:41:05.451Z,67.07
2019-02-19T17:43:48.199Z,87.10
2019-02-19T17:47:00.148Z,88.07
2019-02-19T17:49:55.318Z,99.80
2019-02-19T17:52:42.001Z,111.17
2019-02-19T17:55:34.591Z,44.03
2019-02-19T17:58:15.515Z,45.93
2019-02-19T18:01:15.675Z,41.27
2019-02-19T18:04:10.976Z,53.73
2019-02-19T18:06:52.975Z,50.50
2019-02-19T18:09:37.403Z,45.87
2019-02-19T18:12:39.427Z,42.33
2019-02-19T18:15:31.041Z,36.90
2019-02-19T18:18:24.801Z,40.23
2019-02-19T18:20:59.533Z,39.40
2019-02-19T18:23:34.387Z,33.43
2019-02-19T18:26:09.119Z,32.83
2019-02-19T18:28:43.952Z,33.27
2019-02-19T18:31:18.692Z,32.67
2019-02-19T18:33:53.495Z,32.60
2019-02-19T18:36:28.257Z,32.43
2019-02-19T18:39:04.859Z,32.27
2019-02-19T18:41:41.429Z,31.83
2019-02-19T18:44:27.780Z,32.93
2019-02-19T18:47:02.603Z,31.73
2019-02-19T18:49:37.352Z,32.37
2019-02-19T18:52:12.251Z,31.93
2019-02-19T18:54:47.091Z,32.83
2019-02-19T18:57:21.910Z,33.80
2019-02-19T18:59:56.686Z,41.60
2019-02-19T19:02:31.430Z,37.53
2019-02-19T19:05:07.152Z,34.40
2019-02-19T19:07:42.351Z,32.50
2019-02-19T19:10:17.109Z,32.17
2019-02-19T19:12:51.931Z,35.53
2019-02-19T19:15:26.741Z,35.90
2019-02-19T19:18:01.801Z,39.93
2019-02-19T19:20:36.603Z,36.20
2019-02-19T19:23:11.335Z,34.57
2019-02-19T19:25:46.103Z,34.57
2019-02-19T19:28:21.129Z,33.43
2019-02-19T19:30:55.966Z,34.27
2019-02-19T19:33:30.774Z,33.20
2019-02-19T19:36:05.504Z,33.23
2019-02-19T19:38:40.279Z,34.07
2019-02-19T19:41:15.088Z,33.67
2019-02-19T19:43:49.852Z,36.63
2019-02-19T19:46:24.726Z,57.57
2019-02-19T19:48:59.474Z,40.50
2019-02-19T19:51:34.345Z,39.23
2019-02-19T19:54:09.087Z,35.63
2019-02-19T19:56:43.811Z,33.33
2019-02-19T19:59:18.671Z,32.80
2019-02-19T20:01:53.399Z,31.77
2019-02-19T20:04:28.221Z,32.37
2019-02-19T20:07:03.019Z,31.37
2019-02-19T20:09:37.775Z,32.67
2019-02-19T20:12:12.643Z,31.67
2019-02-19T20:14:47.439Z,31.07
2019-02-19T20:17:23.256Z,30.83
2019-02-19T20:19:58.072Z,31.30
2019-02-19T20:22:32.815Z,32.03
2019-02-19T20:25:09.591Z,31.60
2019-02-19T20:27:45.447Z,32.67
2019-02-19T20:30:20.322Z,35.00
2019-02-19T20:32:55.118Z,33.50
2019-02-19T20:35:29.978Z,33.43
2019-02-19T20:38:04.730Z,33.40
2019-02-19T20:40:39.486Z,32.07
2019-02-19T20:43:14.339Z,32.63
2019-02-19T20:45:49.216Z,32.20
2019-02-19T20:48:23.992Z,31.00
2019-02-19T20:50:58.806Z,31.40
2019-02-19T20:53:33.639Z,32.90
2019-02-19T20:56:08.538Z,31.43
2019-02-19T20:58:43.327Z,31.83
2019-02-19T21:01:18.071Z,33.60
2019-02-19T21:03:52.802Z,30.83
2019-02-19T21:06:27.553Z,31.37
2019-02-19T21:09:02.347Z,31.33
2019-02-19T21:11:38.706Z,30.77
2019-02-19T21:14:13.430Z,31.13
2019-02-19T21:16:48.267Z,30.83
2019-02-19T21:19:24.596Z,30.33
2019-02-19T21:21:59.424Z,31.17
2019-02-19T21:24:34.223Z,31.23
2019-02-19T21:27:08.981Z,31.67
2019-02-19T21:29:43.841Z,31.33
2019-02-19T21:32:18.640Z,31.50
2019-02-19T21:34:53.401Z,31.27
2019-02-19T21:37:28.147Z,30.90
2019-02-19T21:40:02.947Z,30.83
2019-02-19T21:42:39.319Z,30.83
2019-02-19T21:45:14.512Z,30.50
2019-02-19T21:47:49.399Z,31.77
2019-02-19T21:50:24.205Z,30.90
2019-02-19T21:52:58.945Z,32.40
2019-02-19T21:55:33.669Z,31.47
2019-02-19T21:58:08.402Z,31.07
2019-02-19T22:00:43.211Z,32.03
2019-02-19T22:03:19.587Z,31.37
2019-02-19T22:06:06.163Z,32.07
2019-02-19T22:08:41.921Z,32.10
2019-02-19T22:11:16.805Z,31.83
2019-02-19T22:13:52.502Z,31.03
2019-02-19T22:16:27.246Z,31.87
2019-02-19T22:19:01.970Z,31.60
2019-02-19T22:21:44.647Z,33.00
2019-02-19T22:24:34.953Z,31.67
2019-02-19T22:27:09.847Z,31.63
2019-02-19T22:29:44.588Z,31.97
2019-02-19T22:32:20.705Z,32.30
2019-02-19T22:34:55.423Z,32.37
2019-02-19T22:37:30.639Z,32.53
2019-02-19T22:40:06.314Z,31.65
2019-02-19T22:42:42.112Z,33.50
2019-02-19T22:45:16.983Z,33.40
2019-02-19T22:47:53.630Z,34.10
2019-02-19T22:50:28.278Z,33.43
2019-02-19T22:53:05.783Z,33.43
2019-02-19T22:56:05.709Z,32.73
2019-02-19T22:58:40.511Z,33.43
2019-02-19T23:01:24.116Z,34.07
2019-02-19T23:04:00.144Z,33.73
2019-02-19T23:06:34.943Z,34.13
2019-02-19T23:09:11.323Z,33.83
2019-02-19T23:11:46.052Z,33.67
2019-02-19T23:14:20.779Z,34.83
2019-02-19T23:16:55.582Z,34.27
2019-02-19T23:19:30.447Z,33.87
2019-02-19T23:22:05.255Z,33.03
2019-02-19T23:24:40.014Z,34.63
2019-02-19T23:27:14.817Z,34.03
2019-02-19T23:29:49.679Z,34.03
2019-02-19T23:32:24.400Z,34.47
2019-02-19T23:35:24.395Z,34.60
2019-02-19T23:37:59.217Z,33.10
2019-02-19T23:40:34.241Z,33.63
2019-02-19T23:43:09.055Z,33.70
2019-02-19T23:45:43.769Z,34.07
2019-02-19T23:48:18.508Z,33.77
2019-02-19T23:50:53.249Z,33.77
2019-02-19T23:53:28.064Z,35.03
2019-02-19T23:56:02.866Z,35.03
2019-02-19T23:58:37.616Z,34.33
